| time (UTC) | temp C | wind direction | speed KPH | gust KPH | rain 1hr cm | rain 24hr cm | rain mn cm | humidity % | barometer mb |
| 20260906220033 | 32 | 0.0 | 0.0 | 0.00 | 0.00 | 0.00 | 12 | 1001.8 | |
| 20260906214532 | 32 | 0.0 | 0.0 | 0.00 | 0.00 | 0.00 | 12 | 1001.9 | |
| 20260906213031 | 32 | 0.0 | 0.0 | 0.00 | 0.00 | 0.00 | 11 | 1002.0 | |
| 20260906211529 | 32 | 0.0 | 0.0 | 0.00 | 0.00 | 0.00 | 11 | 1002.2 | |
| 20260906210027 | 32 | 0.0 | 0.0 | 0.00 | 0.00 | 0.00 | 11 | 1002.8 | |
| 20260906204527 | 33 | 0.0 | 0.0 | 0.00 | 0.00 | 0.00 | 11 | 1002.8 | |
| 20260906203026 | 33 | 0.0 | 0.0 | 0.00 | 0.00 | 0.00 | 12 | 1002.8 | |
| 20260906201525 | 33 | 0.0 | 0.0 | 0.00 | 0.00 | 0.00 | 12 | 1002.8 | |
| 20260906200024 | 33 | 0.0 | 0.0 | 0.00 | 0.00 | 0.00 | 13 | 1002.6 | |
| 20260906194525 | 33 | 0.0 | 0.0 | 0.00 | 0.00 | 0.00 | 12 | 1002.8 | |
| 20260906193020 | 32 | 0.0 | 0.0 | 0.00 | 0.00 | 0.00 | 15 | 1003.0 | |
| 20260906191517 | 32 | 0.0 | 0.0 | 0.00 | 0.00 | 0.00 | 14 | 1003.3 | |
| 20260906190015 | 32 | 0.0 | 0.0 | 0.00 | 0.00 | 0.00 | 14 | 1003.6 | |
| 20260906184513 | 32 | 0.0 | 0.0 | 0.00 | 0.00 | 0.00 | 14 | 1003.8 | |
| 20260906183014 | 31 | 0.0 | 0.0 | 0.00 | 0.00 | 0.00 | 14 | 1004.1 | |
| 20260906181505 | 31 | 0.0 | 0.0 | 0.00 | 0.00 | 0.00 | 15 | 1004.3 | |
| 20260906180119 | 31 | 0.0 | 0.0 | 0.00 | 0.00 | 0.00 | 17 | 1004.5 | |
| 20260906174559 | 30 | 0.0 | 0.0 | 0.00 | 0.00 | 0.00 | 23 | 1004.8 | |
| 20260906173102 | 30 | 0.0 | 0.0 | 0.00 | 0.00 | 0.00 | 23 | 1005.1 | |
| 20260906171551 | 28 | 0.0 | 0.0 | 0.00 | 0.00 | 0.00 | 26 | 1005.4 | |
| 20260906170112 | 28 | 0.0 | 0.0 | 0.00 | 0.00 | 0.00 | 27 | 1005.7 | |
| 20260906164544 | 27 | 0.0 | 0.0 | 0.00 | 0.00 | 0.00 | 29 | 1005.8 | |
| 20260906163041 | 26 | 0.0 | 0.0 | 0.00 | 0.00 | 0.00 | 30 | 1005.8 | |
| 20260906161537 | 26 | 0.0 | 0.0 | 0.00 | 0.00 | 0.00 | 31 | 1006.0 | |
| 20260906160035 | 25 | 0.0 | 0.0 | 0.00 | 0.00 | 0.00 | 32 | 1006.0 | |
| 20260906154532 | 25 | 0.0 | 0.0 | 0.00 | 0.00 | 0.00 | 33 | 1006.2 | |
| 20260906153029 | 24 | 0.0 | 0.0 | 0.00 | 0.00 | 0.00 | 36 | 1006.3 | |
| 20260906151524 | 22 | 0.0 | 0.0 | 0.00 | 0.00 | 0.00 | 41 | 1006.4 | |
| 20260906150019 | 21 | 0.0 | 0.0 | 0.00 | 0.00 | 0.00 | 42 | 1006.6 | |
| 20260906144520 | 21 | 0.0 | 0.0 | 0.00 | 0.00 | 0.00 | 43 | 1006.5 | |
| 20260906143012 | 20 | 0.0 | 0.0 | 0.00 | 0.00 | 0.00 | 45 | 1006.7 | |
| 20260906141509 | 20 | 0.0 | 0.0 | 0.00 | 0.00 | 0.00 | 47 | 1006.6 | |
| 20260906140010 | 16 | 0.0 | 0.0 | 0.00 | 0.00 | 0.00 | 57 | 1006.5 | |
| 20260906134516 | 13 | 0.0 | 0.0 | 0.00 | 0.00 | 0.00 | 62 | 1006.7 | |
| 20260906133008 | 11 | 0.0 | 0.0 | 0.00 | 0.00 | 0.00 | 69 | 1006.8 | |
| 20260906131508 | 10 | 0.0 | 0.0 | 0.00 | 0.00 | 0.00 | 70 | 1006.8 | |
| 20260906130004 | 10 | 0.0 | 0.0 | 0.00 | 0.00 | 0.00 | 68 | 1006.7 | |
| 20260906124506 | 11 | 0.0 | 0.0 | 0.00 | 0.00 | 0.00 | 68 | 1006.4 | |
| 20260906123002 | 11 | 0.0 | 0.0 | 0.00 | 0.00 | 0.00 | 68 | 1006.3 | |
| 20260906121601 | 11 | 0.0 | 0.0 | 0.00 | 0.00 | 0.00 | 65 | 1006.4 | |
| 20260906114609 | 11 | 0.0 | 0.0 | 0.00 | 0.00 | 0.00 | 66 | 1006.4 | |
| 20260906113055 | 11 | 0.0 | 0.0 | 0.00 | 0.00 | 0.00 | 64 | 1006.4 | |
| 20260906111554 | 12 | 0.0 | 0.0 | 0.00 | 0.00 | 0.00 | 64 | 1006.3 | |
| 20260906110051 | 12 | 0.0 | 0.0 | 0.00 | 0.00 | 0.00 | 62 | 1006.4 | |
| 20260906104548 | 12 | 0.0 | 0.0 | 0.00 | 0.00 | 0.00 | 61 | 1006.4 | |
| 20260906103049 | 12 | 0.0 | 0.0 | 0.00 | 0.00 | 0.00 | 60 | 1006.3 | |
| 20260906101544 | 13 | 0.0 | 0.0 | 0.00 | 0.00 | 0.00 | 59 | 1006.3 | |
| 20260906100039 | 14 | 0.0 | 0.0 | 0.00 | 0.00 | 0.00 | 57 | 1006.0 | |
| 20260906094535 | 15 | 0.0 | 0.0 | 0.00 | 0.00 | 0.00 | 54 | 1006.0 | |
| 20260906093033 | 15 | 0.0 | 0.0 | 0.00 | 0.00 | 0.00 | 53 | 1005.9 | |
| 20260906091533 | 16 | 0.0 | 0.0 | 0.00 | 0.00 | 0.00 | 52 | 1005.8 | |
| 20260906090026 | 16 | 0.0 | 0.0 | 0.00 | 0.00 | 0.00 | 50 | 1005.9 | |
| 20260906084521 | 17 | 0.0 | 0.0 | 0.00 | 0.00 | 0.00 | 48 | 1005.8 | |
| 20260906083020 | 18 | 0.0 | 0.0 | 0.00 | 0.00 | 0.00 | 47 | 1005.8 | |
| 20260906081515 | 18 | 0.0 | 0.0 | 0.00 | 0.00 | 0.00 | 46 | 1005.8 | |
| 20260906080024 | 18 | 0.0 | 0.0 | 0.00 | 0.00 | 0.00 | 45 | 1005.8 | |
| 20260906074512 | 18 | 0.0 | 0.0 | 0.00 | 0.00 | 0.00 | 44 | 1005.8 | |
| 20260906073009 | 19 | 0.0 | 0.0 | 0.00 | 0.00 | 0.00 | 43 | 1005.9 | |
| 20260906071508 | 19 | 0.0 | 0.0 | 0.00 | 0.00 | 0.00 | 43 | 1005.9 | |
| 20260906070008 | 19 | 0.0 | 0.0 | 0.00 | 0.00 | 0.00 | 42 | 1005.9 | |
| 20260906064507 | 19 | 0.0 | 0.0 | 0.00 | 0.00 | 0.00 | 42 | 1005.9 | |
| 20260906063005 | 19 | 0.0 | 0.0 | 0.00 | 0.00 | 0.00 | 41 | 1005.7 | |
| 20260906061503 | 20 | 0.0 | 0.0 | 0.00 | 0.00 | 0.00 | 40 | 1005.9 | |
| 20260906060001 | 20 | 0.0 | 0.0 | 0.00 | 0.00 | 0.00 | 40 | 1006.0 | |
| 20260906054500 | 20 | 0.0 | 0.0 | 0.00 | 0.00 | 0.00 | 39 | 1005.9 | |
| 20260906053109 | 20 | 0.0 | 0.0 | 0.00 | 0.00 | 0.00 | 38 | 1005.7 | |
| 20260906051602 | 21 | 0.0 | 0.0 | 0.00 | 0.00 | 0.00 | 38 | 1006.1 | |
| 20260906050059 | 21 | 0.0 | 0.0 | 0.00 | 0.00 | 0.00 | 37 | 1006.0 | |
| 20260906044559 | 21 | 0.0 | 0.0 | 0.00 | 0.00 | 0.00 | 37 | 1005.8 | |
| 20260906043102 | 21 | 0.0 | 0.0 | 0.00 | 0.00 | 0.00 | 36 | 1005.9 | |
| 20260906041601 | 22 | 0.0 | 0.0 | 0.00 | 0.00 | 0.00 | 35 | 1005.7 | |
| 20260906040057 | 22 | 0.0 | 0.0 | 0.00 | 0.00 | 0.00 | 34 | 1005.6 | |
| 20260906034557 | 23 | 0.0 | 0.0 | 0.00 | 0.00 | 0.00 | 31 | 1005.8 | |
| 20260906033109 | 24 | 0.0 | 0.0 | 0.00 | 0.00 | 0.00 | 29 | 1005.7 | |
| 20260906031556 | 24 | 0.0 | 0.0 | 0.00 | 0.00 | 0.00 | 28 | 1005.6 | |
| 20260906030056 | 25 | 0.0 | 0.0 | 0.00 | 0.00 | 0.00 | 28 | 1005.5 | |
| 20260906024557 | 25 | 0.0 | 0.0 | 0.00 | 0.00 | 0.00 | 27 | 1005.3 | |
| 20260906023056 | 25 | 0.0 | 0.0 | 0.00 | 0.00 | 0.00 | 27 | 1005.0 | |
| 20260906021558 | 25 | 0.0 | 0.0 | 0.00 | 0.00 | 0.00 | 27 | 1004.8 | |
| 20260906020105 | 26 | 0.0 | 0.0 | 0.00 | 0.00 | 0.00 | 26 | 1004.6 | |
| 20260906014555 | 26 | 0.0 | 0.0 | 0.00 | 0.00 | 0.00 | 25 | 1004.5 | |
| 20260906013103 | 27 | 0.0 | 0.0 | 0.00 | 0.00 | 0.00 | 24 | 1004.4 | |
| 20260906011602 | 28 | 0.0 | 0.0 | 0.00 | 0.00 | 0.00 | 23 | 1004.4 | |
| 20260906010052 | 29 | 0.0 | 0.0 | 0.00 | 0.00 | 0.00 | 22 | 1004.2 | |
| 20260906004601 | 30 | 0.0 | 0.0 | 0.00 | 0.00 | 0.00 | 21 | 1004.1 | |
| 20260906003053 | 30 | 0.0 | 0.0 | 0.00 | 0.00 | 0.00 | 20 | 1004.0 | |
| 20260906001551 | 31 | 0.0 | 0.0 | 0.00 | 0.00 | 0.00 | 20 | 1003.8 | |
| 20260906000055 | 31 | 0.0 | 0.0 | 0.00 | 0.00 | 0.00 | 20 | 1003.7 | |
| 20260905234549 | 31 | 0.0 | 0.0 | 0.00 | 0.00 | 0.00 | 19 | 1003.7 | |
| 20260905233047 | 31 | 0.0 | 0.0 | 0.00 | 0.00 | 0.00 | 20 | 1003.7 | |
| 20260905231546 | 31 | 0.0 | 0.0 | 0.00 | 0.00 | 0.00 | 20 | 1003.6 | |
| 20260905230045 | 31 | 0.0 | 0.0 | 0.00 | 0.00 | 0.00 | 19 | 1003.7 | |
| 20260905224550 | 31 | 0.0 | 0.0 | 0.00 | 0.00 | 0.00 | 19 | 1003.8 | |
| 20260905223044 | 31 | 0.0 | 0.0 | 0.00 | 0.00 | 0.00 | 18 | 1003.9 | |
| 20260905221543 | 32 | 0.0 | 0.0 | 0.00 | 0.00 | 0.00 | 18 | 1003.9 |